sensor_id;sensor_type;location;lat;lon;timestamp;P1;durP1;ratioP1;P2;durP2;ratioP2
10945;SDS011;5525;42.648;23.368;2023-01-28T00:01:55;8.85;;;6.60;;
10945;SDS011;5525;42.648;23.368;2023-01-28T00:04:23;8.60;;;6.65;;
10945;SDS011;5525;42.648;23.368;2023-01-28T00:06:50;7.90;;;6.35;;
10945;SDS011;5525;42.648;23.368;2023-01-28T00:09:17;9.05;;;6.78;;
10945;SDS011;5525;42.648;23.368;2023-01-28T00:11:44;7.40;;;6.30;;
10945;SDS011;5525;42.648;23.368;2023-01-28T00:14:14;9.25;;;6.63;;
10945;SDS011;5525;42.648;23.368;2023-01-28T00:16:41;7.05;;;5.78;;
10945;SDS011;5525;42.648;23.368;2023-01-28T00:19:08;7.95;;;5.90;;
10945;SDS011;5525;42.648;23.368;2023-01-28T00:21:35;7.60;;;4.93;;
10945;SDS011;5525;42.648;23.368;2023-01-28T00:24:02;7.00;;;5.82;;
10945;SDS011;5525;42.648;23.368;2023-01-28T00:26:31;7.78;;;6.15;;
10945;SDS011;5525;42.648;23.368;2023-01-28T00:28:58;7.45;;;5.70;;
10945;SDS011;5525;42.648;23.368;2023-01-28T00:31:29;7.55;;;5.93;;
10945;SDS011;5525;42.648;23.368;2023-01-28T00:33:56;6.68;;;5.60;;
10945;SDS011;5525;42.648;23.368;2023-01-28T00:36:24;7.32;;;5.38;;
10945;SDS011;5525;42.648;23.368;2023-01-28T00:38:52;9.95;;;6.72;;
10945;SDS011;5525;42.648;23.368;2023-01-28T00:41:21;8.38;;;6.30;;
10945;SDS011;5525;42.648;23.368;2023-01-28T00:43:49;8.30;;;6.15;;
10945;SDS011;5525;42.648;23.368;2023-01-28T00:46:17;8.70;;;6.35;;
10945;SDS011;5525;42.648;23.368;2023-01-28T00:48:46;7.97;;;6.35;;
10945;SDS011;5525;42.648;23.368;2023-01-28T00:51:14;7.65;;;5.80;;
10945;SDS011;5525;42.648;23.368;2023-01-28T00:53:42;8.55;;;6.15;;
10945;SDS011;5525;42.648;23.368;2023-01-28T00:56:11;9.90;;;6.53;;
10945;SDS011;5525;42.648;23.368;2023-01-28T00:58:39;6.53;;;5.07;;
10945;SDS011;5525;42.648;23.368;2023-01-28T01:01:07;10.70;;;5.85;;
10945;SDS011;5525;42.648;23.368;2023-01-28T01:03:35;7.47;;;5.95;;
10945;SDS011;5525;42.648;23.368;2023-01-28T01:06:04;7.65;;;5.55;;
10945;SDS011;5525;42.648;23.368;2023-01-28T01:08:31;6.80;;;5.13;;
10945;SDS011;5525;42.648;23.368;2023-01-28T01:11:00;6.82;;;5.30;;
10945;SDS011;5525;42.648;23.368;2023-01-28T01:13:29;10.80;;;6.55;;
10945;SDS011;5525;42.648;23.368;2023-01-28T01:16:00;8.52;;;5.90;;
10945;SDS011;5525;42.648;23.368;2023-01-28T01:18:28;7.10;;;5.57;;
10945;SDS011;5525;42.648;23.368;2023-01-28T01:20:55;7.65;;;5.25;;
10945;SDS011;5525;42.648;23.368;2023-01-28T01:23:24;8.02;;;5.63;;
10945;SDS011;5525;42.648;23.368;2023-01-28T01:25:51;8.48;;;5.68;;
10945;SDS011;5525;42.648;23.368;2023-01-28T01:28:18;7.60;;;5.72;;
10945;SDS011;5525;42.648;23.368;2023-01-28T01:30:46;7.13;;;5.75;;
10945;SDS011;5525;42.648;23.368;2023-01-28T01:33:13;7.95;;;6.05;;
10945;SDS011;5525;42.648;23.368;2023-01-28T01:35:41;6.78;;;5.13;;
10945;SDS011;5525;42.648;23.368;2023-01-28T01:38:08;8.30;;;6.07;;
10945;SDS011;5525;42.648;23.368;2023-01-28T01:40:36;7.38;;;5.38;;
10945;SDS011;5525;42.648;23.368;2023-01-28T01:43:09;7.93;;;5.97;;
10945;SDS011;5525;42.648;23.368;2023-01-28T01:45:41;7.47;;;5.90;;
10945;SDS011;5525;42.648;23.368;2023-01-28T01:48:10;9.15;;;5.68;;
10945;SDS011;5525;42.648;23.368;2023-01-28T01:50:46;7.40;;;5.65;;
10945;SDS011;5525;42.648;23.368;2023-01-28T01:53:17;7.53;;;5.60;;
10945;SDS011;5525;42.648;23.368;2023-01-28T01:55:48;7.93;;;6.05;;
10945;SDS011;5525;42.648;23.368;2023-01-28T01:58:17;7.50;;;5.82;;
10945;SDS011;5525;42.648;23.368;2023-01-28T02:00:47;7.45;;;6.10;;
10945;SDS011;5525;42.648;23.368;2023-01-28T02:03:14;7.05;;;5.45;;
10945;SDS011;5525;42.648;23.368;2023-01-28T02:05:44;8.05;;;6.10;;
10945;SDS011;5525;42.648;23.368;2023-01-28T02:08:11;6.55;;;5.57;;
10945;SDS011;5525;42.648;23.368;2023-01-28T02:10:49;7.97;;;6.00;;
10945;SDS011;5525;42.648;23.368;2023-01-28T02:13:20;7.18;;;5.35;;
10945;SDS011;5525;42.648;23.368;2023-01-28T02:15:50;7.07;;;6.00;;
10945;SDS011;5525;42.648;23.368;2023-01-28T02:18:17;7.30;;;5.82;;
10945;SDS011;5525;42.648;23.368;2023-01-28T02:20:53;7.50;;;5.22;;
10945;SDS011;5525;42.648;23.368;2023-01-28T02:23:35;6.50;;;5.18;;
10945;SDS011;5525;42.648;23.368;2023-01-28T02:26:28;8.45;;;6.00;;
10945;SDS011;5525;42.648;23.368;2023-01-28T02:29:16;7.32;;;5.75;;
10945;SDS011;5525;42.648;23.368;2023-01-28T02:31:51;7.10;;;5.25;;
10945;SDS011;5525;42.648;23.368;2023-01-28T02:34:24;7.55;;;5.60;;
10945;SDS011;5525;42.648;23.368;2023-01-28T02:37:01;7.35;;;5.70;;
10945;SDS011;5525;42.648;23.368;2023-01-28T02:39:34;6.63;;;4.72;;
10945;SDS011;5525;42.648;23.368;2023-01-28T02:42:06;6.05;;;5.13;;
10945;SDS011;5525;42.648;23.368;2023-01-28T02:44:40;8.05;;;5.55;;
10945;SDS011;5525;42.648;23.368;2023-01-28T02:47:08;7.70;;;5.63;;
10945;SDS011;5525;42.648;23.368;2023-01-28T02:49:52;7.13;;;5.07;;
10945;SDS011;5525;42.648;23.368;2023-01-28T02:55:34;9.30;;;6.70;;
10945;SDS011;5525;42.648;23.368;2023-01-28T02:58:08;7.20;;;5.63;;
10945;SDS011;5525;42.648;23.368;2023-01-28T03:00:45;8.05;;;6.30;;
10945;SDS011;5525;42.648;23.368;2023-01-28T03:03:17;8.35;;;5.90;;
10945;SDS011;5525;42.648;23.368;2023-01-28T03:05:52;7.50;;;5.95;;
10945;SDS011;5525;42.648;23.368;2023-01-28T03:08:32;7.30;;;5.80;;
10945;SDS011;5525;42.648;23.368;2023-01-28T03:11:20;7.90;;;6.50;;
10945;SDS011;5525;42.648;23.368;2023-01-28T03:14:05;6.88;;;5.55;;
10945;SDS011;5525;42.648;23.368;2023-01-28T03:16:52;6.68;;;5.45;;
10945;SDS011;5525;42.648;23.368;2023-01-28T03:19:40;6.72;;;5.93;;
10945;SDS011;5525;42.648;23.368;2023-01-28T03:22:24;8.30;;;5.57;;
10945;SDS011;5525;42.648;23.368;2023-01-28T03:25:12;7.10;;;5.50;;
10945;SDS011;5525;42.648;23.368;2023-01-28T03:27:59;7.90;;;5.72;;
10945;SDS011;5525;42.648;23.368;2023-01-28T03:30:46;7.80;;;6.05;;
10945;SDS011;5525;42.648;23.368;2023-01-28T03:33:38;7.45;;;5.47;;
10945;SDS011;5525;42.648;23.368;2023-01-28T03:36:24;7.68;;;6.00;;
10945;SDS011;5525;42.648;23.368;2023-01-28T03:39:08;6.57;;;5.53;;
10945;SDS011;5525;42.648;23.368;2023-01-28T03:41:35;8.38;;;6.10;;
10945;SDS011;5525;42.648;23.368;2023-01-28T03:44:02;6.55;;;5.55;;
10945;SDS011;5525;42.648;23.368;2023-01-28T03:46:47;6.90;;;5.50;;
10945;SDS011;5525;42.648;23.368;2023-01-28T03:49:15;7.40;;;6.22;;
10945;SDS011;5525;42.648;23.368;2023-01-28T03:51:42;8.52;;;6.28;;
10945;SDS011;5525;42.648;23.368;2023-01-28T03:54:10;7.95;;;5.95;;
10945;SDS011;5525;42.648;23.368;2023-01-28T03:56:37;8.75;;;6.40;;
10945;SDS011;5525;42.648;23.368;2023-01-28T03:59:04;9.18;;;6.20;;
10945;SDS011;5525;42.648;23.368;2023-01-28T04:01:31;7.20;;;6.00;;
10945;SDS011;5525;42.648;23.368;2023-01-28T04:03:58;7.88;;;5.60;;
10945;SDS011;5525;42.648;23.368;2023-01-28T04:06:27;8.05;;;5.78;;
10945;SDS011;5525;42.648;23.368;2023-01-28T04:08:54;7.88;;;5.82;;
10945;SDS011;5525;42.648;23.368;2023-01-28T04:11:23;7.25;;;5.70;;
10945;SDS011;5525;42.648;23.368;2023-01-28T04:13:50;7.50;;;5.32;;
10945;SDS011;5525;42.648;23.368;2023-01-28T04:16:18;8.25;;;5.85;;
10945;SDS011;5525;42.648;23.368;2023-01-28T04:18:45;8.38;;;6.15;;
10945;SDS011;5525;42.648;23.368;2023-01-28T04:21:12;9.32;;;6.22;;
10945;SDS011;5525;42.648;23.368;2023-01-28T04:23:41;8.40;;;6.43;;
10945;SDS011;5525;42.648;23.368;2023-01-28T04:26:08;7.07;;;5.82;;
10945;SDS011;5525;42.648;23.368;2023-01-28T04:28:34;6.88;;;5.13;;
10945;SDS011;5525;42.648;23.368;2023-01-28T04:31:01;7.05;;;5.38;;
10945;SDS011;5525;42.648;23.368;2023-01-28T04:33:28;6.57;;;5.30;;
10945;SDS011;5525;42.648;23.368;2023-01-28T04:35:55;6.60;;;4.80;;
10945;SDS011;5525;42.648;23.368;2023-01-28T04:38:22;7.78;;;5.43;;
10945;SDS011;5525;42.648;23.368;2023-01-28T04:40:51;7.20;;;5.18;;
10945;SDS011;5525;42.648;23.368;2023-01-28T04:43:18;7.38;;;5.28;;
10945;SDS011;5525;42.648;23.368;2023-01-28T04:45:45;7.55;;;6.18;;
10945;SDS011;5525;42.648;23.368;2023-01-28T04:48:13;6.60;;;5.05;;
10945;SDS011;5525;42.648;23.368;2023-01-28T04:50:41;7.03;;;5.28;;
10945;SDS011;5525;42.648;23.368;2023-01-28T04:53:08;7.13;;;5.82;;
10945;SDS011;5525;42.648;23.368;2023-01-28T04:55:35;6.93;;;6.00;;
10945;SDS011;5525;42.648;23.368;2023-01-28T04:58:04;8.50;;;6.30;;
10945;SDS011;5525;42.648;23.368;2023-01-28T05:00:30;6.88;;;5.88;;
10945;SDS011;5525;42.648;23.368;2023-01-28T05:02:57;7.40;;;6.28;;
10945;SDS011;5525;42.648;23.368;2023-01-28T05:05:24;8.15;;;6.03;;
10945;SDS011;5525;42.648;23.368;2023-01-28T05:07:51;7.95;;;5.95;;
10945;SDS011;5525;42.648;23.368;2023-01-28T05:10:18;7.53;;;6.15;;
10945;SDS011;5525;42.648;23.368;2023-01-28T05:12:45;7.15;;;6.20;;
10945;SDS011;5525;42.648;23.368;2023-01-28T05:15:15;8.38;;;6.43;;
10945;SDS011;5525;42.648;23.368;2023-01-28T05:17:42;8.00;;;6.75;;
10945;SDS011;5525;42.648;23.368;2023-01-28T05:20:09;8.10;;;6.13;;
10945;SDS011;5525;42.648;23.368;2023-01-28T05:22:38;7.90;;;6.18;;
10945;SDS011;5525;42.648;23.368;2023-01-28T05:25:06;8.15;;;6.63;;
10945;SDS011;5525;42.648;23.368;2023-01-28T05:27:33;8.85;;;6.70;;
10945;SDS011;5525;42.648;23.368;2023-01-28T05:30:00;7.93;;;6.35;;
10945;SDS011;5525;42.648;23.368;2023-01-28T05:32:28;8.45;;;6.60;;
10945;SDS011;5525;42.648;23.368;2023-01-28T05:34:55;8.27;;;6.30;;
10945;SDS011;5525;42.648;23.368;2023-01-28T05:37:22;8.82;;;6.80;;
10945;SDS011;5525;42.648;23.368;2023-01-28T05:39:49;8.02;;;6.18;;
10945;SDS011;5525;42.648;23.368;2023-01-28T05:42:16;8.18;;;6.43;;
10945;SDS011;5525;42.648;23.368;2023-01-28T05:44:44;7.85;;;6.57;;
10945;SDS011;5525;42.648;23.368;2023-01-28T05:47:11;8.05;;;5.97;;
10945;SDS011;5525;42.648;23.368;2023-01-28T05:49:39;8.85;;;6.45;;
10945;SDS011;5525;42.648;23.368;2023-01-28T05:52:06;7.05;;;5.93;;
10945;SDS011;5525;42.648;23.368;2023-01-28T05:54:33;7.60;;;5.47;;
10945;SDS011;5525;42.648;23.368;2023-01-28T05:57:00;7.65;;;5.65;;
10945;SDS011;5525;42.648;23.368;2023-01-28T05:59:27;8.43;;;5.95;;
10945;SDS011;5525;42.648;23.368;2023-01-28T06:01:53;8.55;;;6.13;;
10945;SDS011;5525;42.648;23.368;2023-01-28T06:04:20;6.60;;;5.70;;
10945;SDS011;5525;42.648;23.368;2023-01-28T06:06:48;7.88;;;5.70;;
10945;SDS011;5525;42.648;23.368;2023-01-28T06:09:15;9.65;;;7.18;;
10945;SDS011;5525;42.648;23.368;2023-01-28T06:11:42;9.65;;;6.88;;
10945;SDS011;5525;42.648;23.368;2023-01-28T06:14:09;9.57;;;6.68;;
10945;SDS011;5525;42.648;23.368;2023-01-28T06:16:36;9.15;;;6.80;;
10945;SDS011;5525;42.648;23.368;2023-01-28T06:19:03;8.27;;;6.78;;
10945;SDS011;5525;42.648;23.368;2023-01-28T06:21:30;7.38;;;6.03;;
10945;SDS011;5525;42.648;23.368;2023-01-28T06:23:59;8.35;;;6.47;;
10945;SDS011;5525;42.648;23.368;2023-01-28T06:26:27;6.93;;;5.85;;
10945;SDS011;5525;42.648;23.368;2023-01-28T06:28:56;8.27;;;6.50;;
10945;SDS011;5525;42.648;23.368;2023-01-28T06:31:24;8.95;;;6.03;;
10945;SDS011;5525;42.648;23.368;2023-01-28T06:33:51;8.63;;;5.95;;
10945;SDS011;5525;42.648;23.368;2023-01-28T06:36:20;9.02;;;6.78;;
10945;SDS011;5525;42.648;23.368;2023-01-28T06:38:47;8.60;;;5.82;;
10945;SDS011;5525;42.648;23.368;2023-01-28T06:41:15;7.40;;;6.15;;
10945;SDS011;5525;42.648;23.368;2023-01-28T06:43:42;9.50;;;6.60;;
10945;SDS011;5525;42.648;23.368;2023-01-28T06:46:09;8.40;;;7.10;;
10945;SDS011;5525;42.648;23.368;2023-01-28T06:48:36;8.27;;;6.25;;
10945;SDS011;5525;42.648;23.368;2023-01-28T06:51:03;8.20;;;6.18;;
10945;SDS011;5525;42.648;23.368;2023-01-28T06:53:30;10.50;;;7.43;;
10945;SDS011;5525;42.648;23.368;2023-01-28T06:55:57;10.43;;;6.07;;
10945;SDS011;5525;42.648;23.368;2023-01-28T06:58:25;8.23;;;6.43;;
10945;SDS011;5525;42.648;23.368;2023-01-28T07:00:52;10.70;;;7.00;;
10945;SDS011;5525;42.648;23.368;2023-01-28T07:03:19;10.07;;;6.82;;
10945;SDS011;5525;42.648;23.368;2023-01-28T07:05:46;8.82;;;5.88;;
10945;SDS011;5525;42.648;23.368;2023-01-28T07:08:13;9.05;;;6.38;;
10945;SDS011;5525;42.648;23.368;2023-01-28T07:10:40;9.65;;;6.82;;
10945;SDS011;5525;42.648;23.368;2023-01-28T07:13:06;7.50;;;6.18;;
10945;SDS011;5525;42.648;23.368;2023-01-28T07:15:35;9.15;;;6.35;;
10945;SDS011;5525;42.648;23.368;2023-01-28T07:18:02;10.32;;;7.63;;
10945;SDS011;5525;42.648;23.368;2023-01-28T07:20:29;11.27;;;7.45;;
10945;SDS011;5525;42.648;23.368;2023-01-28T07:22:56;10.07;;;7.65;;
10945;SDS011;5525;42.648;23.368;2023-01-28T07:25:22;10.10;;;7.60;;
10945;SDS011;5525;42.648;23.368;2023-01-28T07:27:50;9.88;;;7.38;;
10945;SDS011;5525;42.648;23.368;2023-01-28T07:30:18;9.02;;;6.97;;
10945;SDS011;5525;42.648;23.368;2023-01-28T07:32:52;10.52;;;7.20;;
10945;SDS011;5525;42.648;23.368;2023-01-28T07:35:20;10.27;;;7.22;;
10945;SDS011;5525;42.648;23.368;2023-01-28T07:37:50;10.02;;;7.35;;
10945;SDS011;5525;42.648;23.368;2023-01-28T07:40:17;9.88;;;8.00;;
10945;SDS011;5525;42.648;23.368;2023-01-28T07:42:44;10.48;;;7.85;;
10945;SDS011;5525;42.648;23.368;2023-01-28T07:45:11;14.35;;;9.05;;
10945;SDS011;5525;42.648;23.368;2023-01-28T07:47:38;10.30;;;7.28;;
10945;SDS011;5525;42.648;23.368;2023-01-28T07:50:07;11.40;;;7.78;;
10945;SDS011;5525;42.648;23.368;2023-01-28T07:52:35;10.45;;;7.82;;
10945;SDS011;5525;42.648;23.368;2023-01-28T07:55:08;12.30;;;8.50;;
10945;SDS011;5525;42.648;23.368;2023-01-28T07:57:36;12.50;;;8.55;;
10945;SDS011;5525;42.648;23.368;2023-01-28T08:00:03;10.55;;;7.38;;
10945;SDS011;5525;42.648;23.368;2023-01-28T08:02:31;10.32;;;7.60;;
10945;SDS011;5525;42.648;23.368;2023-01-28T08:04:58;9.95;;;8.00;;
10945;SDS011;5525;42.648;23.368;2023-01-28T08:07:32;10.55;;;7.57;;
10945;SDS011;5525;42.648;23.368;2023-01-28T08:09:59;10.02;;;6.75;;
10945;SDS011;5525;42.648;23.368;2023-01-28T08:12:26;12.18;;;7.65;;
10945;SDS011;5525;42.648;23.368;2023-01-28T08:14:52;13.25;;;8.00;;
10945;SDS011;5525;42.648;23.368;2023-01-28T08:17:20;11.20;;;7.72;;
10945;SDS011;5525;42.648;23.368;2023-01-28T08:19:47;12.93;;;8.15;;
10945;SDS011;5525;42.648;23.368;2023-01-28T08:22:14;11.57;;;7.30;;
10945;SDS011;5525;42.648;23.368;2023-01-28T08:24:44;10.50;;;7.00;;
10945;SDS011;5525;42.648;23.368;2023-01-28T08:27:12;10.40;;;7.47;;
10945;SDS011;5525;42.648;23.368;2023-01-28T08:29:39;10.25;;;6.53;;
10945;SDS011;5525;42.648;23.368;2023-01-28T08:32:07;10.07;;;6.85;;
10945;SDS011;5525;42.648;23.368;2023-01-28T08:34:37;8.95;;;7.30;;
10945;SDS011;5525;42.648;23.368;2023-01-28T08:37:04;9.23;;;6.10;;
10945;SDS011;5525;42.648;23.368;2023-01-28T08:39:30;9.63;;;7.10;;
10945;SDS011;5525;42.648;23.368;2023-01-28T08:42:02;8.68;;;6.57;;
10945;SDS011;5525;42.648;23.368;2023-01-28T08:44:30;9.25;;;7.05;;
10945;SDS011;5525;42.648;23.368;2023-01-28T08:46:57;9.13;;;6.65;;
10945;SDS011;5525;42.648;23.368;2023-01-28T08:49:26;9.10;;;6.75;;
10945;SDS011;5525;42.648;23.368;2023-01-28T08:51:53;7.93;;;6.00;;
10945;SDS011;5525;42.648;23.368;2023-01-28T08:54:23;8.05;;;6.30;;
10945;SDS011;5525;42.648;23.368;2023-01-28T08:56:51;8.48;;;6.20;;
10945;SDS011;5525;42.648;23.368;2023-01-28T08:59:21;8.13;;;6.25;;
10945;SDS011;5525;42.648;23.368;2023-01-28T09:01:48;9.45;;;6.55;;
10945;SDS011;5525;42.648;23.368;2023-01-28T09:04:15;16.15;;;11.07;;
10945;SDS011;5525;42.648;23.368;2023-01-28T09:06:42;14.07;;;8.27;;
10945;SDS011;5525;42.648;23.368;2023-01-28T09:09:08;28.05;;;15.02;;
10945;SDS011;5525;42.648;23.368;2023-01-28T09:11:35;9.57;;;7.20;;
10945;SDS011;5525;42.648;23.368;2023-01-28T09:14:02;7.20;;;5.72;;
10945;SDS011;5525;42.648;23.368;2023-01-28T09:19:00;9.85;;;7.40;;
10945;SDS011;5525;42.648;23.368;2023-01-28T09:21:26;9.15;;;7.43;;
10945;SDS011;5525;42.648;23.368;2023-01-28T09:23:53;10.95;;;7.10;;
10945;SDS011;5525;42.648;23.368;2023-01-28T09:26:22;9.60;;;6.43;;
10945;SDS011;5525;42.648;23.368;2023-01-28T09:28:49;9.20;;;6.60;;
10945;SDS011;5525;42.648;23.368;2023-01-28T09:31:16;9.77;;;7.13;;
10945;SDS011;5525;42.648;23.368;2023-01-28T09:33:48;9.90;;;7.00;;
10945;SDS011;5525;42.648;23.368;2023-01-28T09:36:20;11.45;;;7.43;;
10945;SDS011;5525;42.648;23.368;2023-01-28T09:38:47;9.00;;;6.75;;
10945;SDS011;5525;42.648;23.368;2023-01-28T09:41:22;8.68;;;6.75;;
10945;SDS011;5525;42.648;23.368;2023-01-28T09:44:11;11.02;;;7.88;;
10945;SDS011;5525;42.648;23.368;2023-01-28T09:46:50;11.18;;;7.78;;
10945;SDS011;5525;42.648;23.368;2023-01-28T09:49:20;9.50;;;8.05;;
10945;SDS011;5525;42.648;23.368;2023-01-28T09:51:53;10.75;;;7.10;;
10945;SDS011;5525;42.648;23.368;2023-01-28T09:54:26;10.27;;;7.47;;
10945;SDS011;5525;42.648;23.368;2023-01-28T09:57:01;8.98;;;7.15;;
10945;SDS011;5525;42.648;23.368;2023-01-28T09:59:33;11.05;;;7.25;;
10945;SDS011;5525;42.648;23.368;2023-01-28T10:02:03;11.60;;;7.43;;
10945;SDS011;5525;42.648;23.368;2023-01-28T10:04:52;9.15;;;6.60;;
10945;SDS011;5525;42.648;23.368;2023-01-28T10:07:28;9.38;;;6.75;;
10945;SDS011;5525;42.648;23.368;2023-01-28T10:10:02;9.13;;;6.97;;
10945;SDS011;5525;42.648;23.368;2023-01-28T10:12:44;12.15;;;7.05;;
10945;SDS011;5525;42.648;23.368;2023-01-28T10:15:46;10.75;;;7.55;;
10945;SDS011;5525;42.648;23.368;2023-01-28T10:18:33;9.35;;;6.65;;
10945;SDS011;5525;42.648;23.368;2023-01-28T10:21:07;9.50;;;6.82;;
10945;SDS011;5525;42.648;23.368;2023-01-28T10:23:43;11.30;;;7.85;;
10945;SDS011;5525;42.648;23.368;2023-01-28T10:26:15;11.10;;;7.75;;
10945;SDS011;5525;42.648;23.368;2023-01-28T10:28:53;11.35;;;7.55;;
10945;SDS011;5525;42.648;23.368;2023-01-28T10:31:26;10.10;;;6.93;;
10945;SDS011;5525;42.648;23.368;2023-01-28T10:34:00;8.88;;;7.10;;
10945;SDS011;5525;42.648;23.368;2023-01-28T10:36:29;10.98;;;8.00;;
10945;SDS011;5525;42.648;23.368;2023-01-28T10:38:58;10.82;;;7.97;;
10945;SDS011;5525;42.648;23.368;2023-01-28T10:41:28;9.93;;;7.15;;
10945;SDS011;5525;42.648;23.368;2023-01-28T10:43:55;11.80;;;8.25;;
10945;SDS011;5525;42.648;23.368;2023-01-28T10:46:27;11.63;;;8.15;;
10945;SDS011;5525;42.648;23.368;2023-01-28T10:48:58;10.88;;;7.18;;
10945;SDS011;5525;42.648;23.368;2023-01-28T10:51:32;10.15;;;7.50;;
10945;SDS011;5525;42.648;23.368;2023-01-28T10:54:00;11.07;;;7.75;;
10945;SDS011;5525;42.648;23.368;2023-01-28T10:56:43;9.35;;;7.47;;
10945;SDS011;5525;42.648;23.368;2023-01-28T10:59:17;11.85;;;7.38;;
10945;SDS011;5525;42.648;23.368;2023-01-28T11:01:46;8.48;;;7.25;;
10945;SDS011;5525;42.648;23.368;2023-01-28T11:04:18;10.52;;;7.97;;
10945;SDS011;5525;42.648;23.368;2023-01-28T11:06:53;10.70;;;7.30;;
10945;SDS011;5525;42.648;23.368;2023-01-28T11:09:25;8.40;;;6.50;;
10945;SDS011;5525;42.648;23.368;2023-01-28T11:11:55;9.57;;;7.05;;
10945;SDS011;5525;42.648;23.368;2023-01-28T11:14:23;9.02;;;6.43;;
10945;SDS011;5525;42.648;23.368;2023-01-28T11:16:55;9.07;;;6.55;;
10945;SDS011;5525;42.648;23.368;2023-01-28T11:19:26;7.55;;;6.10;;
10945;SDS011;5525;42.648;23.368;2023-01-28T11:22:01;10.05;;;7.13;;
10945;SDS011;5525;42.648;23.368;2023-01-28T11:24:32;8.38;;;6.78;;
10945;SDS011;5525;42.648;23.368;2023-01-28T11:27:06;10.32;;;7.85;;
10945;SDS011;5525;42.648;23.368;2023-01-28T11:29:42;7.63;;;5.65;;
10945;SDS011;5525;42.648;23.368;2023-01-28T11:32:16;9.35;;;6.25;;
10945;SDS011;5525;42.648;23.368;2023-01-28T11:34:47;8.68;;;6.95;;
10945;SDS011;5525;42.648;23.368;2023-01-28T11:37:16;9.35;;;7.32;;
10945;SDS011;5525;42.648;23.368;2023-01-28T11:39:48;10.50;;;7.53;;
10945;SDS011;5525;42.648;23.368;2023-01-28T11:42:29;11.52;;;7.32;;
10945;SDS011;5525;42.648;23.368;2023-01-28T11:44:58;10.63;;;7.38;;
10945;SDS011;5525;42.648;23.368;2023-01-28T11:47:31;8.90;;;6.32;;
10945;SDS011;5525;42.648;23.368;2023-01-28T11:50:17;8.68;;;6.85;;
10945;SDS011;5525;42.648;23.368;2023-01-28T11:52:59;9.50;;;6.68;;
10945;SDS011;5525;42.648;23.368;2023-01-28T11:55:42;8.70;;;6.38;;
10945;SDS011;5525;42.648;23.368;2023-01-28T11:58:20;10.38;;;7.78;;
10945;SDS011;5525;42.648;23.368;2023-01-28T12:00:56;7.80;;;6.20;;
10945;SDS011;5525;42.648;23.368;2023-01-28T12:03:35;8.77;;;7.10;;
10945;SDS011;5525;42.648;23.368;2023-01-28T12:06:22;10.32;;;7.45;;
10945;SDS011;5525;42.648;23.368;2023-01-28T12:09:06;8.95;;;6.68;;
10945;SDS011;5525;42.648;23.368;2023-01-28T12:11:54;8.77;;;6.50;;
10945;SDS011;5525;42.648;23.368;2023-01-28T12:17:36;10.73;;;7.40;;
10945;SDS011;5525;42.648;23.368;2023-01-28T12:20:17;8.38;;;6.47;;
10945;SDS011;5525;42.648;23.368;2023-01-28T12:23:05;10.10;;;6.72;;
10945;SDS011;5525;42.648;23.368;2023-01-28T12:25:48;9.48;;;7.18;;
10945;SDS011;5525;42.648;23.368;2023-01-28T12:28:29;10.13;;;7.05;;
10945;SDS011;5525;42.648;23.368;2023-01-28T12:31:12;11.82;;;7.03;;
10945;SDS011;5525;42.648;23.368;2023-01-28T12:33:56;8.95;;;6.40;;
10945;SDS011;5525;42.648;23.368;2023-01-28T12:36:37;10.10;;;6.53;;
10945;SDS011;5525;42.648;23.368;2023-01-28T12:39:19;10.23;;;7.28;;
10945;SDS011;5525;42.648;23.368;2023-01-28T12:42:01;10.32;;;7.68;;
10945;SDS011;5525;42.648;23.368;2023-01-28T12:44:32;10.20;;;7.18;;
10945;SDS011;5525;42.648;23.368;2023-01-28T12:47:05;9.55;;;7.22;;
10945;SDS011;5525;42.648;23.368;2023-01-28T12:49:37;8.82;;;6.88;;
10945;SDS011;5525;42.648;23.368;2023-01-28T12:52:08;9.30;;;7.30;;
10945;SDS011;5525;42.648;23.368;2023-01-28T12:54:52;8.80;;;6.78;;
10945;SDS011;5525;42.648;23.368;2023-01-28T12:57:27;9.52;;;7.07;;
10945;SDS011;5525;42.648;23.368;2023-01-28T12:59:58;10.20;;;7.78;;
10945;SDS011;5525;42.648;23.368;2023-01-28T13:02:43;9.73;;;7.35;;
10945;SDS011;5525;42.648;23.368;2023-01-28T13:05:16;10.57;;;7.85;;
10945;SDS011;5525;42.648;23.368;2023-01-28T13:07:58;11.02;;;8.13;;
10945;SDS011;5525;42.648;23.368;2023-01-28T13:10:29;9.35;;;7.10;;
10945;SDS011;5525;42.648;23.368;2023-01-28T13:13:09;10.75;;;7.97;;
10945;SDS011;5525;42.648;23.368;2023-01-28T13:15:42;9.13;;;6.85;;
10945;SDS011;5525;42.648;23.368;2023-01-28T13:21:02;10.60;;;7.13;;
10945;SDS011;5525;42.648;23.368;2023-01-28T13:23:38;10.48;;;7.65;;
10945;SDS011;5525;42.648;23.368;2023-01-28T13:26:11;10.02;;;7.78;;
10945;SDS011;5525;42.648;23.368;2023-01-28T13:31:54;11.75;;;8.18;;
10945;SDS011;5525;42.648;23.368;2023-01-28T13:34:27;14.82;;;8.32;;
10945;SDS011;5525;42.648;23.368;2023-01-28T13:36:59;10.07;;;7.60;;
10945;SDS011;5525;42.648;23.368;2023-01-28T13:39:28;10.40;;;7.70;;
10945;SDS011;5525;42.648;23.368;2023-01-28T13:42:07;9.80;;;7.30;;
10945;SDS011;5525;42.648;23.368;2023-01-28T13:44:37;9.98;;;7.47;;
10945;SDS011;5525;42.648;23.368;2023-01-28T13:47:14;10.57;;;7.90;;
10945;SDS011;5525;42.648;23.368;2023-01-28T13:49:50;12.35;;;8.05;;
10945;SDS011;5525;42.648;23.368;2023-01-28T13:52:23;10.32;;;7.82;;
10945;SDS011;5525;42.648;23.368;2023-01-28T13:54:54;11.38;;;7.80;;
10945;SDS011;5525;42.648;23.368;2023-01-28T14:00:26;7.75;;;5.78;;
10945;SDS011;5525;42.648;23.368;2023-01-28T14:03:10;11.00;;;7.78;;
10945;SDS011;5525;42.648;23.368;2023-01-28T14:06:09;10.25;;;7.07;;
10945;SDS011;5525;42.648;23.368;2023-01-28T14:08:54;11.30;;;8.00;;
10945;SDS011;5525;42.648;23.368;2023-01-28T14:12:02;9.73;;;7.18;;
10945;SDS011;5525;42.648;23.368;2023-01-28T14:14:46;10.85;;;8.07;;
10945;SDS011;5525;42.648;23.368;2023-01-28T14:17:33;12.25;;;8.85;;
10945;SDS011;5525;42.648;23.368;2023-01-28T14:20:10;11.05;;;8.00;;
10945;SDS011;5525;42.648;23.368;2023-01-28T14:22:43;11.80;;;8.45;;
10945;SDS011;5525;42.648;23.368;2023-01-28T14:25:11;9.93;;;8.05;;
10945;SDS011;5525;42.648;23.368;2023-01-28T14:27:43;10.68;;;7.82;;
10945;SDS011;5525;42.648;23.368;2023-01-28T14:30:19;10.30;;;8.30;;
10945;SDS011;5525;42.648;23.368;2023-01-28T14:33:06;12.00;;;8.20;;
10945;SDS011;5525;42.648;23.368;2023-01-28T14:35:47;10.15;;;7.45;;
10945;SDS011;5525;42.648;23.368;2023-01-28T14:38:23;12.52;;;8.55;;
10945;SDS011;5525;42.648;23.368;2023-01-28T14:40:51;9.20;;;6.40;;
10945;SDS011;5525;42.648;23.368;2023-01-28T14:43:21;14.27;;;8.30;;
10945;SDS011;5525;42.648;23.368;2023-01-28T14:48:27;13.02;;;8.93;;
10945;SDS011;5525;42.648;23.368;2023-01-28T14:56:19;12.60;;;8.82;;
10945;SDS011;5525;42.648;23.368;2023-01-28T14:58:55;9.88;;;7.55;;
10945;SDS011;5525;42.648;23.368;2023-01-28T15:01:26;10.43;;;8.55;;
10945;SDS011;5525;42.648;23.368;2023-01-28T15:07:23;13.88;;;9.52;;
10945;SDS011;5525;42.648;23.368;2023-01-28T15:10:00;12.07;;;8.57;;
10945;SDS011;5525;42.648;23.368;2023-01-28T15:12:34;11.05;;;8.25;;
10945;SDS011;5525;42.648;23.368;2023-01-28T15:15:24;10.80;;;7.88;;
10945;SDS011;5525;42.648;23.368;2023-01-28T15:18:04;9.35;;;6.80;;
10945;SDS011;5525;42.648;23.368;2023-01-28T15:20:44;8.82;;;7.22;;
10945;SDS011;5525;42.648;23.368;2023-01-28T15:23:15;7.55;;;6.07;;
10945;SDS011;5525;42.648;23.368;2023-01-28T15:25:50;8.73;;;6.35;;
10945;SDS011;5525;42.648;23.368;2023-01-28T15:28:25;8.02;;;6.07;;
10945;SDS011;5525;42.648;23.368;2023-01-28T15:30:59;8.80;;;6.03;;
10945;SDS011;5525;42.648;23.368;2023-01-28T15:33:31;14.13;;;7.55;;
10945;SDS011;5525;42.648;23.368;2023-01-28T15:36:05;9.27;;;6.88;;
10945;SDS011;5525;42.648;23.368;2023-01-28T15:38:40;10.45;;;7.63;;
10945;SDS011;5525;42.648;23.368;2023-01-28T15:41:11;9.15;;;7.00;;